createdAt,value
2022-09-03T00:01:03.181Z,20.60
2022-09-03T00:03:38.985Z,20.60
2022-09-03T00:06:20.826Z,20.80
2022-09-03T00:09:01.027Z,20.70
2022-09-03T00:11:39.253Z,20.90
2022-09-03T00:14:11.752Z,20.70
2022-09-03T00:16:55.401Z,20.90
2022-09-03T00:19:31.006Z,20.90
2022-09-03T00:22:03.511Z,21.00
2022-09-03T00:24:36.410Z,21.00
2022-09-03T00:27:08.001Z,21.40
2022-09-03T00:30:01.148Z,21.20
2022-09-03T00:33:06.952Z,21.00
2022-09-03T00:35:36.012Z,21.40
2022-09-03T00:38:02.855Z,21.30
2022-09-03T00:41:02.102Z,21.50
2022-09-03T00:44:10.853Z,21.40
2022-09-03T00:46:59.260Z,21.70
2022-09-03T00:49:29.182Z,21.80
2022-09-03T00:52:06.358Z,21.70
2022-09-03T00:54:33.246Z,21.70
2022-09-03T00:57:29.640Z,21.80
2022-09-03T00:59:59.059Z,22.00
2022-09-03T01:02:35.295Z,22.20
2022-09-03T01:05:02.128Z,22.30
2022-09-03T01:07:46.245Z,22.40
2022-09-03T01:10:38.649Z,22.50
2022-09-03T01:13:05.837Z,22.50
2022-09-03T01:15:54.586Z,22.50
2022-09-03T01:18:34.146Z,22.70
2022-09-03T01:21:34.870Z,22.90
2022-09-03T01:24:39.152Z,23.10
2022-09-03T01:27:26.998Z,23.10
2022-09-03T01:30:06.181Z,23.20
2022-09-03T01:32:36.047Z,23.40
2022-09-03T01:35:28.073Z,23.20
2022-09-03T01:38:09.504Z,23.40
2022-09-03T01:40:40.688Z,23.60
2022-09-03T01:43:14.051Z,23.70
2022-09-03T01:45:53.640Z,23.60
2022-09-03T01:48:59.205Z,23.60
2022-09-03T01:51:29.510Z,23.70
2022-09-03T01:54:26.713Z,23.90
2022-09-03T01:57:35.544Z,24.00
2022-09-03T02:00:23.018Z,24.30
2022-09-03T02:02:51.835Z,24.50
2022-09-03T02:05:24.752Z,24.70
2022-09-03T02:08:00.976Z,24.90
2022-09-03T02:10:31.635Z,25.00
2022-09-03T02:13:10.613Z,25.00
2022-09-03T02:15:40.160Z,24.90
2022-09-03T02:18:13.556Z,24.90
2022-09-03T02:20:40.518Z,25.00
2022-09-03T02:23:07.346Z,24.90
2022-09-03T02:25:40.318Z,25.50
2022-09-03T02:28:17.366Z,25.20
2022-09-03T02:30:45.089Z,25.20
2022-09-03T02:33:12.190Z,25.30
2022-09-03T02:35:40.738Z,25.50
2022-09-03T02:38:20.040Z,25.30
2022-09-03T02:40:47.522Z,25.50
2022-09-03T02:43:32.420Z,25.50
2022-09-03T02:46:03.674Z,25.70
2022-09-03T02:48:30.588Z,25.70
2022-09-03T02:50:57.367Z,25.90
2022-09-03T02:53:24.080Z,26.10
2022-09-03T02:55:50.843Z,26.00
2022-09-03T02:58:17.588Z,26.00
2022-09-03T03:00:44.988Z,26.10
2022-09-03T03:03:11.778Z,26.10
2022-09-03T03:06:00.514Z,26.30
2022-09-03T03:08:28.832Z,26.30
2022-09-03T03:10:58.866Z,26.40
2022-09-03T03:13:30.117Z,26.40
2022-09-03T03:16:01.651Z,26.40
2022-09-03T03:18:29.173Z,26.40
2022-09-03T03:20:56.070Z,26.40
2022-09-03T03:23:22.820Z,26.60
2022-09-03T03:25:49.783Z,26.60
2022-09-03T03:28:18.054Z,26.60
2022-09-03T03:30:47.608Z,26.70
2022-09-03T03:33:14.508Z,26.80
2022-09-03T03:35:42.680Z,26.80
2022-09-03T03:38:09.621Z,26.70
2022-09-03T03:40:40.842Z,27.20
2022-09-03T03:43:07.603Z,26.80
2022-09-03T03:45:34.733Z,26.90
2022-09-03T03:48:01.495Z,26.80
2022-09-03T03:50:28.190Z,26.90
2022-09-03T03:52:54.953Z,26.90
2022-09-03T03:55:21.721Z,27.00
2022-09-03T03:57:48.583Z,27.20
2022-09-03T04:00:15.871Z,27.30
2022-09-03T04:02:42.982Z,27.30
2022-09-03T04:05:10.554Z,27.40
2022-09-03T04:07:38.347Z,27.40
2022-09-03T04:10:05.748Z,27.60
2022-09-03T04:12:33.243Z,27.60
2022-09-03T04:14:59.960Z,27.60
2022-09-03T04:17:28.241Z,27.60
2022-09-03T04:19:55.004Z,27.60
2022-09-03T04:22:21.848Z,27.60
2022-09-03T04:24:48.618Z,27.80
2022-09-03T04:27:15.532Z,27.80
2022-09-03T04:29:42.226Z,27.70
2022-09-03T04:32:27.541Z,27.90
2022-09-03T04:34:54.382Z,27.90
2022-09-03T04:37:21.145Z,27.90
2022-09-03T04:39:48.018Z,28.00
2022-09-03T04:42:14.758Z,28.00
2022-09-03T04:44:41.998Z,27.90
2022-09-03T04:47:08.757Z,28.00
2022-09-03T04:49:35.623Z,28.20
2022-09-03T04:52:03.563Z,28.30
2022-09-03T04:54:30.320Z,28.30
2022-09-03T04:56:57.169Z,28.40
2022-09-03T04:59:24.046Z,28.50
2022-09-03T05:01:52.747Z,28.40
2022-09-03T05:04:19.823Z,28.50
2022-09-03T05:06:46.682Z,28.50
2022-09-03T05:09:13.512Z,28.60
2022-09-03T05:11:40.455Z,28.60
2022-09-03T05:14:11.694Z,28.80
2022-09-03T05:16:38.849Z,29.00
2022-09-03T05:19:08.814Z,28.50
2022-09-03T05:21:36.437Z,28.50
2022-09-03T05:24:04.544Z,28.70
2022-09-03T05:26:36.574Z,28.70
2022-09-03T05:29:07.786Z,28.80
2022-09-03T05:31:36.873Z,28.70
2022-09-03T05:34:05.287Z,28.70
2022-09-03T05:36:35.647Z,28.60
2022-09-03T05:39:03.139Z,28.60
2022-09-03T05:41:30.392Z,28.60
2022-09-03T05:43:59.575Z,28.70
2022-09-03T05:46:32.636Z,28.80
2022-09-03T05:49:06.819Z,28.80
2022-09-03T05:51:39.518Z,29.00
2022-09-03T05:54:08.585Z,28.70
2022-09-03T05:56:36.937Z,28.90
2022-09-03T05:59:09.229Z,28.90
2022-09-03T06:01:40.905Z,28.70
2022-09-03T06:04:18.181Z,28.70
2022-09-03T06:06:47.246Z,28.70
2022-09-03T06:09:19.482Z,28.40
2022-09-03T06:11:47.170Z,28.40
2022-09-03T06:14:14.812Z,28.40
2022-09-03T06:16:44.657Z,28.30
2022-09-03T06:19:14.191Z,28.30
2022-09-03T06:21:43.254Z,28.30
2022-09-03T06:24:16.088Z,28.50
2022-09-03T06:26:43.778Z,28.20
2022-09-03T06:29:11.223Z,28.10
2022-09-03T06:31:39.275Z,28.20
2022-09-03T06:34:06.082Z,28.30
2022-09-03T06:36:33.130Z,28.10
2022-09-03T06:39:00.087Z,28.00
2022-09-03T06:41:33.668Z,27.90
2022-09-03T06:44:03.674Z,28.10
2022-09-03T06:46:33.256Z,28.40
2022-09-03T06:49:00.540Z,27.80
2022-09-03T06:51:29.932Z,27.70
2022-09-03T06:54:06.348Z,27.70
2022-09-03T06:56:38.916Z,27.70
2022-09-03T06:59:12.322Z,27.50
2022-09-03T07:01:43.957Z,27.60
2022-09-03T07:04:12.856Z,27.50
2022-09-03T07:06:42.499Z,27.50
2022-09-03T07:09:11.413Z,27.40
2022-09-03T07:11:46.521Z,27.60
2022-09-03T07:14:14.357Z,27.30
2022-09-03T07:16:42.608Z,27.40
2022-09-03T07:19:09.780Z,27.30
2022-09-03T07:21:37.228Z,27.20
2022-09-03T07:24:05.773Z,27.20
2022-09-03T07:26:46.549Z,27.50
2022-09-03T07:29:14.783Z,27.00
2022-09-03T07:31:43.195Z,27.10
2022-09-03T07:34:12.625Z,27.00
2022-09-03T07:36:41.613Z,26.90
2022-09-03T07:39:09.866Z,27.00
2022-09-03T07:41:37.310Z,27.30
2022-09-03T07:44:07.290Z,27.40
2022-09-03T07:46:37.890Z,27.40
2022-09-03T07:49:06.268Z,27.10
2022-09-03T07:51:37.797Z,26.80
2022-09-03T07:54:08.246Z,26.60
2022-09-03T07:56:35.876Z,26.50
2022-09-03T07:59:03.609Z,26.50
2022-09-03T08:01:32.799Z,26.60
2022-09-03T08:04:00.583Z,26.60
2022-09-03T08:06:29.527Z,26.70
2022-09-03T08:09:05.046Z,26.20
2022-09-03T08:11:36.679Z,26.30
2022-09-03T08:14:06.539Z,26.00
2022-09-03T08:16:36.696Z,25.70
2022-09-03T08:19:04.226Z,25.50
2022-09-03T08:21:31.553Z,25.60
2022-09-03T08:24:08.096Z,25.50
2022-09-03T08:26:38.876Z,25.50
2022-09-03T08:29:06.364Z,25.90
2022-09-03T08:31:34.597Z,26.10
2022-09-03T08:34:06.358Z,26.20
2022-09-03T08:36:38.401Z,26.40
2022-09-03T08:39:09.763Z,26.80
2022-09-03T08:42:10.490Z,27.20
2022-09-03T08:45:00.814Z,27.90
2022-09-03T08:47:43.201Z,28.00
2022-09-03T08:50:19.347Z,28.00
2022-09-03T08:52:59.508Z,28.30
2022-09-03T08:55:42.829Z,28.60
2022-09-03T08:58:14.654Z,28.80
2022-09-03T09:01:06.281Z,28.70
2022-09-03T09:03:57.578Z,29.40
2022-09-03T09:06:39.174Z,29.60
2022-09-03T09:09:15.229Z,29.60
2022-09-03T09:12:09.442Z,29.40
2022-09-03T09:15:00.324Z,29.40
2022-09-03T09:17:48.077Z,29.80
2022-09-03T09:20:23.295Z,29.70
2022-09-03T09:22:58.837Z,29.90
2022-09-03T09:25:26.505Z,30.00
2022-09-03T09:28:03.893Z,31.40
2022-09-03T09:30:32.219Z,33.50
2022-09-03T09:33:00.586Z,34.30
2022-09-03T09:35:27.603Z,35.10
2022-09-03T09:38:00.333Z,37.10
2022-09-03T09:40:33.975Z,39.80
2022-09-03T09:43:16.057Z,42.30
2022-09-03T09:45:45.360Z,45.30
2022-09-03T09:48:18.367Z,51.00
2022-09-03T09:50:45.675Z,53.80
2022-09-03T09:53:16.594Z,56.80
2022-09-03T09:55:58.178Z,57.50
2022-09-03T09:58:28.391Z,54.40
2022-09-03T10:00:57.339Z,56.20
2022-09-03T10:03:29.777Z,57.30
2022-09-03T10:06:26.183Z,58.40
2022-09-03T10:09:20.972Z,53.70
2022-09-03T10:12:06.155Z,52.00
2022-09-03T10:14:39.772Z,48.00
2022-09-03T10:17:20.793Z,48.00
2022-09-03T10:20:31.372Z,47.00
2022-09-03T10:23:18.038Z,46.10
2022-09-03T10:26:12.286Z,45.00
2022-09-03T10:28:43.520Z,43.20
2022-09-03T10:31:42.938Z,42.30
2022-09-03T10:34:37.641Z,41.20
2022-09-03T10:37:17.030Z,40.40
2022-09-03T10:39:52.351Z,39.70
2022-09-03T10:42:35.802Z,40.10
2022-09-03T10:45:09.627Z,39.00
2022-09-03T10:47:55.359Z,38.30
2022-09-03T10:50:51.148Z,37.30
2022-09-03T10:53:23.983Z,36.40
2022-09-03T10:56:08.837Z,36.20
2022-09-03T10:58:57.982Z,35.00
2022-09-03T11:01:48.027Z,34.00
2022-09-03T11:04:23.693Z,33.80
2022-09-03T11:07:01.258Z,33.70
2022-09-03T11:09:27.926Z,33.40
2022-09-03T11:12:03.118Z,33.60
2022-09-03T11:14:44.268Z,33.40
2022-09-03T11:17:28.069Z,34.10
2022-09-03T11:20:16.419Z,33.90
2022-09-03T11:22:45.237Z,34.00
2022-09-03T11:25:15.240Z,34.60
2022-09-03T11:27:42.020Z,33.10
2022-09-03T11:30:14.572Z,33.20
2022-09-03T11:32:52.923Z,32.90
2022-09-03T11:35:29.188Z,32.00
2022-09-03T11:38:05.619Z,31.90
2022-09-03T11:40:38.009Z,31.40
2022-09-03T11:43:24.246Z,31.40
2022-09-03T11:46:14.727Z,30.90
2022-09-03T11:48:48.474Z,30.90
2022-09-03T11:51:30.217Z,31.70
2022-09-03T11:54:01.315Z,31.30
2022-09-03T11:56:30.172Z,32.10
2022-09-03T11:59:15.147Z,32.20
2022-09-03T12:01:53.329Z,31.80
2022-09-03T12:04:37.577Z,31.60
2022-09-03T12:07:35.831Z,31.70
2022-09-03T12:10:32.449Z,32.10
2022-09-03T12:13:31.599Z,31.50
2022-09-03T12:16:13.276Z,31.50
2022-09-03T12:18:42.032Z,32.80
2022-09-03T12:21:10.571Z,31.50
2022-09-03T12:23:44.687Z,31.00
2022-09-03T12:26:15.238Z,31.10
2022-09-03T12:28:48.543Z,30.40
2022-09-03T12:31:23.639Z,29.90
2022-09-03T12:33:54.117Z,29.40
2022-09-03T12:36:24.105Z,29.20
2022-09-03T12:39:10.797Z,29.60
2022-09-03T12:41:38.108Z,28.60
2022-09-03T12:44:05.303Z,28.00
2022-09-03T12:46:34.020Z,28.00
2022-09-03T12:52:07.608Z,27.80
2022-09-03T12:55:05.025Z,27.20
2022-09-03T12:57:45.817Z,27.90
2022-09-03T13:00:16.321Z,28.30
2022-09-03T13:03:06.023Z,28.00
2022-09-03T13:05:40.663Z,28.60
2022-09-03T13:08:10.822Z,28.10
2022-09-03T13:10:43.332Z,27.70
2022-09-03T13:13:27.393Z,27.30
2022-09-03T13:16:32.135Z,26.40
2022-09-03T13:19:06.207Z,26.10
2022-09-03T13:21:32.851Z,25.70
2022-09-03T13:24:17.019Z,26.00
2022-09-03T13:26:55.580Z,25.00
2022-09-03T13:29:46.070Z,24.40
2022-09-03T13:32:29.079Z,24.60
2022-09-03T13:35:23.751Z,23.70
2022-09-03T13:38:18.563Z,22.90
2022-09-03T13:40:52.283Z,22.30
2022-09-03T13:43:40.219Z,22.50
2022-09-03T13:46:11.458Z,21.60
2022-09-03T13:49:01.978Z,21.20
2022-09-03T13:51:39.804Z,21.40
2022-09-03T13:57:35.293Z,20.10
2022-09-03T14:00:10.568Z,19.40
2022-09-03T14:03:13.034Z,19.30
2022-09-03T14:06:02.071Z,18.80
2022-09-03T14:08:59.673Z,18.20
2022-09-03T14:11:29.517Z,18.00
2022-09-03T14:14:11.334Z,17.80
2022-09-03T14:16:50.708Z,18.40
2022-09-03T14:19:43.272Z,19.40
2022-09-03T14:22:25.022Z,20.40
2022-09-03T14:25:01.282Z,21.40
2022-09-03T14:27:30.868Z,22.10
2022-09-03T14:30:04.073Z,23.00
2022-09-03T14:32:48.149Z,23.50
2022-09-03T14:35:27.351Z,24.10
2022-09-03T14:38:25.901Z,24.50
2022-09-03T14:41:27.190Z,24.70
2022-09-03T14:44:12.545Z,25.00
2022-09-03T14:47:07.046Z,25.10
2022-09-03T14:49:42.325Z,25.60
2022-09-03T14:52:37.338Z,25.70
2022-09-03T14:55:07.090Z,25.60
2022-09-03T14:57:58.647Z,25.60
2022-09-03T15:00:43.537Z,25.90
2022-09-03T15:03:34.332Z,26.40
2022-09-03T15:06:32.487Z,26.70
2022-09-03T15:09:23.342Z,26.50
2022-09-03T15:12:00.043Z,26.70
2022-09-03T15:14:36.139Z,27.20
2022-09-03T15:17:34.042Z,26.80
2022-09-03T15:20:24.332Z,27.00
2022-09-03T15:23:06.158Z,26.90
2022-09-03T15:25:51.529Z,26.80
2022-09-03T15:29:03.245Z,26.70
2022-09-03T15:31:49.721Z,27.00
2022-09-03T15:34:22.366Z,27.10
2022-09-03T15:36:53.715Z,27.50
2022-09-03T15:39:37.051Z,27.50
2022-09-03T15:42:27.724Z,27.70
2022-09-03T15:44:57.426Z,27.70
2022-09-03T15:47:50.919Z,27.70
2022-09-03T15:50:41.246Z,28.00
2022-09-03T15:53:34.071Z,28.30
2022-09-03T15:56:31.076Z,27.90
2022-09-03T15:59:23.724Z,27.80
2022-09-03T16:02:21.648Z,28.10
2022-09-03T16:05:13.857Z,28.20
2022-09-03T16:08:07.792Z,28.40
2022-09-03T16:11:09.617Z,28.50
2022-09-03T16:13:55.050Z,28.60
2022-09-03T16:16:47.976Z,28.80
2022-09-03T16:19:37.881Z,29.80
2022-09-03T16:22:45.270Z,31.20
2022-09-03T16:25:18.184Z,32.70
2022-09-03T16:28:11.528Z,33.20
2022-09-03T16:30:43.529Z,33.00
2022-09-03T16:33:38.424Z,33.30
2022-09-03T16:36:11.141Z,34.30
2022-09-03T16:38:43.817Z,35.00
2022-09-03T16:41:24.612Z,37.10
2022-09-03T16:44:10.397Z,39.40
2022-09-03T16:46:54.575Z,42.10
2022-09-03T16:49:48.606Z,45.20
2022-09-03T16:52:48.125Z,48.70
2022-09-03T16:55:33.298Z,58.80
2022-09-03T16:58:00.153Z,66.10
2022-09-03T17:00:56.815Z,78.50
2022-09-03T17:03:55.878Z,87.30
2022-09-03T17:06:40.263Z,92.40
2022-09-03T17:09:27.227Z,93.10
2022-09-03T17:12:01.922Z,93.60
2022-09-03T17:14:52.246Z,95.90
2022-09-03T17:17:34.053Z,95.60
2022-09-03T17:20:31.072Z,91.80
2022-09-03T17:23:06.743Z,92.10
2022-09-03T17:25:36.123Z,95.20
2022-09-03T17:28:09.481Z,96.70
2022-09-03T17:30:53.622Z,99.90
2022-09-03T17:33:42.776Z,99.90
2022-09-03T17:36:17.993Z,99.90
2022-09-03T17:39:06.975Z,99.90
2022-09-03T17:41:53.415Z,99.90
2022-09-03T17:44:41.829Z,99.90
2022-09-03T17:47:29.494Z,99.90
2022-09-03T17:50:19.672Z,99.90
2022-09-03T17:52:55.565Z,99.90
2022-09-03T17:55:36.014Z,99.90
2022-09-03T17:58:22.947Z,99.90
2022-09-03T18:01:04.283Z,99.90
2022-09-03T18:03:40.649Z,99.90
2022-09-03T18:06:19.231Z,99.90
2022-09-03T18:08:51.712Z,99.90
2022-09-03T18:11:30.732Z,99.90
2022-09-03T18:14:21.680Z,99.90
2022-09-03T18:17:26.887Z,99.90
2022-09-03T18:20:19.343Z,99.90
2022-09-03T18:23:19.945Z,99.90
2022-09-03T18:26:09.538Z,99.90
2022-09-03T18:29:21.998Z,99.90
2022-09-03T18:32:07.131Z,99.90
2022-09-03T18:34:54.488Z,99.90
2022-09-03T18:37:43.271Z,99.90
2022-09-03T18:40:38.247Z,99.90
2022-09-03T18:43:42.191Z,99.90
2022-09-03T18:50:22.428Z,99.90
2022-09-03T18:53:40.081Z,99.90
2022-09-03T18:56:33.651Z,99.90
2022-09-03T18:59:45.981Z,99.90
2022-09-03T19:02:48.320Z,99.90
2022-09-03T19:05:56.723Z,99.90
2022-09-03T19:09:15.779Z,99.90
2022-09-03T19:12:22.876Z,99.90
2022-09-03T19:15:29.976Z,99.90
2022-09-03T19:18:27.490Z,99.90
2022-09-03T19:21:37.289Z,99.90
2022-09-03T19:24:22.748Z,99.90
2022-09-03T19:27:37.515Z,99.90
2022-09-03T19:30:27.474Z,99.90
2022-09-03T19:33:46.525Z,99.90
2022-09-03T19:37:03.101Z,99.90
2022-09-03T19:40:09.577Z,99.90
2022-09-03T19:43:10.823Z,99.90
2022-09-03T19:46:12.726Z,99.90
2022-09-03T19:49:21.598Z,99.90
2022-09-03T19:52:20.352Z,99.90
2022-09-03T19:55:11.558Z,99.90
2022-09-03T19:58:00.062Z,99.90
2022-09-03T20:00:47.328Z,99.90
2022-09-03T20:03:33.326Z,99.90
2022-09-03T20:06:22.092Z,99.90
2022-09-03T20:09:09.789Z,99.90
2022-09-03T20:11:39.214Z,99.90
2022-09-03T20:14:14.210Z,99.90
2022-09-03T20:17:09.055Z,99.90
2022-09-03T20:19:38.581Z,99.90
2022-09-03T20:22:25.586Z,99.90
2022-09-03T20:25:28.320Z,99.90
2022-09-03T20:28:26.067Z,99.90
2022-09-03T20:31:22.854Z,99.90
2022-09-03T20:34:20.414Z,99.90
2022-09-03T20:37:13.952Z,99.90
2022-09-03T20:40:25.758Z,99.90
2022-09-03T20:43:14.634Z,99.90
2022-09-03T20:46:13.011Z,99.90
2022-09-03T20:49:05.114Z,99.90
2022-09-03T20:51:56.998Z,99.90
2022-09-03T20:54:33.772Z,99.90
2022-09-03T20:57:03.503Z,99.90
2022-09-03T20:59:48.203Z,99.90
2022-09-03T21:03:00.342Z,99.90
2022-09-03T21:05:38.130Z,99.90
2022-09-03T21:08:48.039Z,99.90
2022-09-03T21:11:43.195Z,99.90
2022-09-03T21:14:47.177Z,99.90
2022-09-03T21:17:29.425Z,99.90
2022-09-03T21:20:31.615Z,99.90
2022-09-03T21:23:08.959Z,99.90
2022-09-03T21:25:46.753Z,99.90
2022-09-03T21:28:18.497Z,99.90
2022-09-03T21:30:51.712Z,99.90
2022-09-03T21:33:29.670Z,99.90
2022-09-03T21:36:16.581Z,99.90
2022-09-03T21:38:49.325Z,99.90
2022-09-03T21:41:26.579Z,99.90
2022-09-03T21:44:23.806Z,99.90
2022-09-03T21:46:56.574Z,99.90
2022-09-03T21:49:54.633Z,99.90
2022-09-03T21:52:44.514Z,99.90
2022-09-03T21:55:35.974Z,99.90
2022-09-03T21:58:15.999Z,99.90
2022-09-03T22:00:43.829Z,99.90
2022-09-03T22:03:10.571Z,99.90
2022-09-03T22:05:49.570Z,99.90
2022-09-03T22:08:31.524Z,99.90
2022-09-03T22:11:12.126Z,99.90
2022-09-03T22:13:54.413Z,99.90
2022-09-03T22:16:33.563Z,99.90
2022-09-03T22:19:00.756Z,99.90
2022-09-03T22:21:45.649Z,99.90
2022-09-03T22:24:24.482Z,99.90
2022-09-03T22:27:02.723Z,99.90
2022-09-03T22:29:32.150Z,99.90
2022-09-03T22:31:58.954Z,99.90
2022-09-03T22:34:48.932Z,99.90
2022-09-03T22:37:50.689Z,99.90
2022-09-03T22:40:28.734Z,99.90
2022-09-03T22:43:21.391Z,99.90
2022-09-03T22:45:57.807Z,99.90
2022-09-03T22:48:27.744Z,99.90
2022-09-03T22:51:03.183Z,99.90
2022-09-03T22:53:57.227Z,99.90
2022-09-03T22:56:24.069Z,99.90
2022-09-03T22:59:03.222Z,99.90
2022-09-03T23:01:41.096Z,99.90
2022-09-03T23:04:30.042Z,99.90
2022-09-03T23:07:42.757Z,99.90
2022-09-03T23:10:14.454Z,99.90
2022-09-03T23:13:02.954Z,99.90
2022-09-03T23:15:32.308Z,99.90
2022-09-03T23:18:19.649Z,99.90
2022-09-03T23:21:07.978Z,99.90
2022-09-03T23:23:40.493Z,99.90
2022-09-03T23:26:23.644Z,99.90
2022-09-03T23:28:59.363Z,99.90
2022-09-03T23:31:27.583Z,99.90
2022-09-03T23:33:54.892Z,99.90
2022-09-03T23:37:01.452Z,99.90
2022-09-03T23:39:45.388Z,99.90
2022-09-03T23:42:25.135Z,99.90
2022-09-03T23:45:15.573Z,99.90
2022-09-03T23:47:53.341Z,99.90
2022-09-03T23:50:44.923Z,99.90
2022-09-03T23:53:47.608Z,99.90
2022-09-03T23:56:47.673Z,99.90
2022-09-03T23:59:20.365Z,99.90
